Time;durP1;ratioP1;P1;durP2;ratioP2;P2;SDS_P1;SDS_P2;PMS_P1;PMS_P2;Temp;Humidity;BMP_temperature;BMP_pressure;BME280_temperature;BME280_humidity;BME280_pressure;Samples;Min_cycle;Max_cycle;Signal;HPM_P1;HPM_P2
2022/12/05 00:01:30;;;;;;;44.90;22.70;;;;;;;3.10;89.61;101687.06;5033558;28;20029;-59
2022/12/05 00:03:58;;;;;;;40.60;20.92;;;;;;;3.11;90.08;101689.75;5033592;28;20069;-59
2022/12/05 00:06:25;;;;;;;44.60;21.60;;;;;;;3.13;90.12;101692.47;5033517;28;20033;-59
2022/12/05 00:08:51;;;;;;;44.47;19.83;;;;;;;3.15;89.70;101696.03;5033188;28;20495;-59
2022/12/05 00:11:20;;;;;;;41.83;20.75;;;;;;;3.19;90.01;101698.00;5033248;28;20037;-59
2022/12/05 00:13:46;;;;;;;45.15;21.45;;;;;;;3.16;89.38;101696.13;5033238;28;20499;-59
2022/12/05 00:16:15;;;;;;;39.58;20.55;;;;;;;3.17;89.78;101691.78;5033013;28;20026;-59
2022/12/05 00:18:41;;;;;;;43.03;21.83;;;;;;;3.20;89.41;101697.19;5033059;28;20021;-60
2022/12/05 00:21:12;;;;;;;40.63;21.02;;;;;;;3.20;89.99;101700.69;5033142;28;20029;-60
2022/12/05 00:23:37;;;;;;;43.78;21.88;;;;;;;3.17;90.03;101699.63;5015541;28;20509;-59
2022/12/05 00:26:04;;;;;;;44.67;21.88;;;;;;;3.17;90.12;101697.94;5015372;28;20033;-59
2022/12/05 00:28:31;;;;;;;42.65;20.67;;;;;;;3.20;90.04;101692.84;5033141;28;20083;-59
2022/12/05 00:31:00;;;;;;;44.40;21.63;;;;;;;3.22;89.94;101687.75;5033333;28;20018;-59
2022/12/05 00:33:26;;;;;;;41.40;21.60;;;;;;;3.21;90.10;101689.47;5033075;28;20116;-60
2022/12/05 00:35:51;;;;;;;39.50;21.55;;;;;;;3.24;89.62;101681.75;5015247;28;20108;-59
2022/12/05 00:38:16;;;;;;;40.97;21.02;;;;;;;3.25;89.67;101688.81;5032890;28;20379;-59
2022/12/05 00:40:42;;;;;;;41.70;20.38;;;;;;;3.25;89.23;101680.03;5032967;28;20068;-59
2022/12/05 00:43:07;;;;;;;43.13;21.05;;;;;;;3.21;90.39;101675.47;5032886;28;20025;-59
2022/12/05 00:45:32;;;;;;;43.95;21.25;;;;;;;3.24;89.80;101680.88;5032924;28;20129;-59
2022/12/05 00:47:58;;;;;;;41.88;21.33;;;;;;;3.27;89.41;101681.03;5032583;28;20052;-59
2022/12/05 00:50:23;;;;;;;38.10;20.58;;;;;;;3.31;89.50;101676.88;5032822;28;20512;-59
2022/12/05 00:52:48;;;;;;;40.38;21.88;;;;;;;3.31;89.79;101682.09;5032657;28;20025;-59
2022/12/05 00:55:14;;;;;;;44.03;20.63;;;;;;;3.29;89.68;101679.41;5032794;28;20419;-59
2022/12/05 00:57:39;;;;;;;44.88;21.80;;;;;;;3.29;89.58;101679.41;5014980;28;20033;-60
2022/12/05 01:00:06;;;;;;;42.40;22.20;;;;;;;3.29;89.70;101684.63;5032767;28;20032;-59
2022/12/05 01:02:31;;;;;;;44.47;20.95;;;;;;;3.29;89.50;101673.28;5032708;28;20029;-60
2022/12/05 01:04:56;;;;;;;43.65;21.25;;;;;;;3.29;89.90;101684.63;5032844;28;20021;-59
2022/12/05 01:07:22;;;;;;;44.20;22.27;;;;;;;3.31;89.33;101683.00;5032676;28;20542;-59
2022/12/05 01:09:47;;;;;;;41.17;21.20;;;;;;;3.32;90.08;101678.69;5014937;28;20022;-59
2022/12/05 01:12:13;;;;;;;44.25;21.77;;;;;;;3.35;89.88;101684.06;5032711;28;20477;-59
2022/12/05 01:14:38;;;;;;;41.95;20.77;;;;;;;3.38;89.30;101690.31;5032596;28;20029;-59
2022/12/05 01:17:03;;;;;;;40.13;20.95;;;;;;;3.43;89.53;101688.00;5032280;28;20057;-59
2022/12/05 01:19:31;;;;;;;40.78;21.25;;;;;;;3.48;89.06;101689.13;5032687;28;20022;-59
2022/12/05 01:21:57;;;;;;;42.50;21.40;;;;;;;3.46;88.64;101691.63;5032841;28;20022;-60
2022/12/05 01:24:24;;;;;;;37.75;20.48;;;;;;;3.49;89.42;101696.13;5032559;28;20383;-59
2022/12/05 01:26:49;;;;;;;45.92;22.48;;;;;;;3.45;88.89;101694.19;5032546;28;20025;-59
2022/12/05 01:29:18;;;;;;;43.55;22.10;;;;;;;3.43;88.95;101698.44;5032367;28;20021;-60
2022/12/05 01:31:44;;;;;;;39.25;20.45;;;;;;;3.46;89.01;101695.97;5032491;28;20017;-60
2022/12/05 01:34:12;;;;;;;40.58;20.83;;;;;;;3.48;88.54;101694.34;5014956;28;20040;-60
2022/12/05 01:36:38;;;;;;;41.22;20.83;;;;;;;3.49;89.13;101696.13;5032399;28;20022;-59
2022/12/05 01:39:05;;;;;;;47.05;26.27;;;;;;;3.54;89.47;101701.59;5032322;28;20097;-59
2022/12/05 01:41:34;;;;;;;42.72;21.90;;;;;;;3.57;89.01;101704.38;5032486;28;20018;-59
2022/12/05 01:44:05;;;;;;;39.85;21.45;;;;;;;3.59;88.50;101702.75;5032391;28;20351;-59
2022/12/05 01:46:33;;;;;;;40.03;20.80;;;;;;;3.60;88.26;101712.38;5032208;28;20053;-60
2022/12/05 01:49:05;;;;;;;41.33;21.48;;;;;;;3.61;88.43;101708.97;5032477;28;20028;-60
2022/12/05 01:51:32;;;;;;;39.13;20.00;;;;;;;3.63;88.31;101716.03;5032339;28;20394;-59
2022/12/05 01:53:59;;;;;;;36.72;20.45;;;;;;;3.62;88.67;101711.66;5032429;28;20022;-59
2022/12/05 01:56:24;;;;;;;39.83;20.85;;;;;;;3.66;89.04;101716.22;5034545;28;20032;-59
2022/12/05 01:58:51;;;;;;;34.50;19.38;;;;;;;3.67;88.70;101723.22;5035964;28;20029;-59
2022/12/05 02:01:18;;;;;;;44.97;22.20;;;;;;;3.68;88.59;101722.44;5035795;28;20104;-59
2022/12/05 02:03:45;;;;;;;39.70;20.45;;;;;;;3.68;89.02;101713.66;5035820;28;20025;-60
2022/12/05 02:06:12;;;;;;;42.72;22.10;;;;;;;3.67;88.36;101725.84;5035670;28;20114;-59
2022/12/05 02:08:38;;;;;;;44.45;20.95;;;;;;;3.65;88.44;101721.38;5035442;28;20081;-59
2022/12/05 02:11:06;;;;;;;40.95;20.60;;;;;;;3.64;89.13;101716.94;5035732;28;20489;-59
2022/12/05 02:13:46;;;;;;;44.15;20.95;;;;;;;3.67;88.53;101719.72;5035596;28;20026;-59
2022/12/05 02:16:50;;;;;;;42.75;21.13;;;;;;;3.65;88.82;101722.25;5035318;28;20471;-59
2022/12/05 02:19:47;;;;;;;41.15;20.58;;;;;;;3.65;89.43;101722.25;5035450;28;20032;-60
2022/12/05 02:22:37;;;;;;;40.05;20.42;;;;;;;3.67;89.27;101724.94;5035567;28;20080;-59
2022/12/05 02:25:14;;;;;;;38.67;20.13;;;;;;;3.71;88.68;101719.06;5035733;28;20109;-59
2022/12/05 02:27:44;;;;;;;40.13;20.83;;;;;;;3.71;89.19;101717.34;5035240;28;20026;-59
2022/12/05 02:30:12;;;;;;;41.25;20.50;;;;;;;3.72;88.52;101719.13;5057927;23;20049;-85
2022/12/05 02:33:00;;;;;;;37.40;20.75;;;;;;;3.75;89.52;101719.31;5036276;28;20037;-84
2022/12/05 02:35:28;;;;;;;41.92;21.30;;;;;;;3.76;88.72;101714.97;5017299;28;20049;-84
2022/12/05 02:38:12;;;;;;;44.53;21.40;;;;;;;3.71;89.34;101717.34;5035532;28;20034;-84
2022/12/05 02:40:48;;;;;;;40.53;21.00;;;;;;;3.67;89.68;101709.28;5035415;28;20474;-84
2022/12/05 02:43:41;;;;;;;39.88;21.10;;;;;;;3.71;89.41;101711.22;5035484;28;20033;-84
2022/12/05 02:46:15;;;;;;;;;;;;;;;3.74;88.76;101716.63;5035372;28;20021;-84
2022/12/05 02:48:44;;;;;;;42.17;20.88;;;;;;;3.62;89.06;101690.75;5035230;28;19913;-85
2022/12/05 02:51:13;;;;;;;41.03;20.30;;;;;;;3.70;89.21;101718.19;5035321;28;20033;-83
2022/12/05 02:53:41;;;;;;;41.67;20.48;;;;;;;3.67;89.62;101720.63;5035431;28;20056;-83
2022/12/05 02:56:06;;;;;;;40.20;20.60;;;;;;;3.68;89.68;101719.81;5034857;28;20061;-82
2022/12/05 02:58:40;;;;;;;44.30;21.83;;;;;;;3.68;89.51;101713.66;5035244;28;20141;-83
2022/12/05 03:01:07;;;;;;;43.30;21.58;;;;;;;3.72;89.73;101723.47;5035166;28;20462;-82
2022/12/05 03:03:33;;;;;;;43.85;21.63;;;;;;;3.70;89.07;101717.28;5035168;28;20454;-83
2022/12/05 03:06:10;;;;;;;40.20;21.60;;;;;;;3.72;89.22;101719.13;5034957;28;20025;-83
2022/12/05 03:09:04;;;;;;;40.78;20.77;;;;;;;3.70;90.04;101715.56;5034218;28;20029;-83
2022/12/05 03:11:38;;;;;;;40.67;21.45;;;;;;;3.74;89.33;101721.84;5034449;28;20048;-83
2022/12/05 03:14:06;;;;;;;43.72;22.15;;;;;;;3.72;90.10;101719.13;5034896;28;20048;-84
2022/12/05 03:16:43;;;;;;;40.30;22.10;;;;;;;3.69;89.44;101718.09;5034890;28;20033;-84
2022/12/05 03:19:14;;;;;;;45.83;22.38;;;;;;;3.69;90.34;101720.72;5035114;28;20025;-83
2022/12/05 03:21:53;;;;;;;44.20;21.08;;;;;;;3.70;89.78;101712.06;5034538;28;20437;-84
2022/12/05 03:24:18;;;;;;;44.83;21.73;;;;;;;3.72;89.99;101716.53;5016852;28;20063;-84
2022/12/05 03:27:08;;;;;;;41.38;21.17;;;;;;;3.69;90.54;101720.72;5034563;28;20037;-84
2022/12/05 03:29:50;;;;;;;43.05;21.00;;;;;;;3.66;90.67;101718.81;5034554;28;20034;-84
2022/12/05 03:32:30;;;;;;;44.50;20.13;;;;;;;3.69;90.51;101715.50;5034157;28;20075;-84
2022/12/05 03:34:58;;;;;;;47.47;21.10;;;;;;;3.73;90.69;101718.34;5034420;28;20087;-84
2022/12/05 03:37:33;;;;;;;42.50;20.15;;;;;;;3.72;90.93;101718.25;5034235;28;20029;-84
2022/12/05 03:40:20;;;;;;;43.20;21.33;;;;;;;3.40;90.85;101659.97;5034298;28;20025;-84
2022/12/05 03:42:53;;;;;;;46.25;22.20;;;;;;;3.58;91.13;101707.06;5016565;28;20030;-85
2022/12/05 03:45:26;;;;;;;43.15;21.13;;;;;;;3.55;91.29;101695.56;5034218;28;20060;-84
2022/12/05 03:48:01;;;;;;;47.35;22.30;;;;;;;3.51;90.92;101691.88;5033963;28;20033;-84
2022/12/05 03:50:28;;;;;;;41.92;21.10;;;;;;;3.44;90.81;101679.31;5034193;28;20030;-84
2022/12/05 03:53:01;;;;;;;42.38;21.65;;;;;;;3.58;91.14;101706.19;5034073;28;20025;-84
2022/12/05 03:55:30;;;;;;;46.38;22.58;;;;;;;3.50;91.81;101696.22;5016358;28;20036;-84
2022/12/05 03:58:04;;;;;;;40.42;20.65;;;;;;;3.62;91.78;101709.03;5033898;28;20037;-84
2022/12/05 04:00:35;;;;;;;42.72;20.35;;;;;;;3.66;91.38;101716.22;5033904;28;20026;-84
2022/12/05 04:03:13;;;;;;;42.60;21.50;;;;;;;3.71;91.64;101713.84;5033728;28;20033;-84
2022/12/05 04:05:53;;;;;;;42.75;21.67;;;;;;;3.61;91.67;101691.56;5033862;28;20037;-84
2022/12/05 04:08:33;;;;;;;39.53;21.23;;;;;;;3.63;91.89;101702.97;5033727;28;20044;-85
2022/12/05 04:11:09;;;;;;;42.78;21.05;;;;;;;3.62;91.28;101706.41;5033762;28;20028;-85
2022/12/05 04:13:49;;;;;;;44.00;21.63;;;;;;;3.68;92.00;101718.91;5033584;28;20026;-85
2022/12/05 04:17:04;;;;;;;42.33;21.60;;;;;;;3.74;92.17;101727.97;5033349;28;20389;-84
2022/12/05 04:22:24;;;;;;;42.53;21.10;;;;;;;3.76;92.29;101734.16;5033646;28;20064;-85
2022/12/05 04:27:44;;;;;;;39.83;20.48;;;;;;;3.77;92.32;101727.25;5033424;28;20515;-84
2022/12/05 04:30:15;;;;;;;41.13;20.85;;;;;;;3.77;92.55;101727.25;5033496;28;20099;-84
2022/12/05 04:32:46;;;;;;;41.72;21.92;;;;;;;3.76;92.64;101728.03;5033156;28;20485;-84
2022/12/05 04:35:21;;;;;;;37.47;19.77;;;;;;;3.72;92.35;101726.09;5033494;28;20029;-83
2022/12/05 04:37:49;;;;;;;38.45;20.63;;;;;;;3.63;92.80;101710.81;5033404;28;20026;-84
2022/12/05 04:40:23;;;;;;;45.80;21.00;;;;;;;3.74;92.60;101730.59;5033040;28;20068;-83
2022/12/05 04:42:51;;;;;;;40.30;20.63;;;;;;;3.73;92.20;101728.78;5033303;28;20034;-85
2022/12/05 04:45:20;;;;;;;45.15;21.23;;;;;;;3.71;92.63;101725.19;5032982;28;20029;-84
2022/12/05 04:47:53;;;;;;;42.15;20.98;;;;;;;3.72;93.06;101736.53;5015304;28;20041;-84
2022/12/05 04:50:19;;;;;;;39.65;19.95;;;;;;;3.70;93.01;101728.63;5015505;28;20374;-84
2022/12/05 04:52:49;;;;;;;37.58;19.88;;;;;;;3.74;93.25;101734.91;5015433;28;20040;-84
2022/12/05 04:55:19;;;;;;;43.55;21.52;;;;;;;3.74;92.84;101725.34;5033265;28;20109;-84
2022/12/05 04:58:03;;;;;;;42.03;22.23;;;;;;;3.76;93.12;101736.78;5033160;28;20025;-84
2022/12/05 05:00:30;;;;;;;41.90;20.80;;;;;;;3.78;93.02;101736.88;5015429;28;20029;-84
2022/12/05 05:03:13;;;;;;;37.33;20.27;;;;;;;3.69;93.86;101716.38;5015308;28;20449;-83
2022/12/05 05:05:39;;;;;;;38.45;20.50;;;;;;;3.68;92.80;101711.97;5033139;28;20095;-84
2022/12/05 05:08:15;;;;;;;36.60;20.38;;;;;;;3.63;93.46;101689.00;5015261;28;20052;-84
2022/12/05 05:11:09;;;;;;;39.42;20.77;;;;;;;3.76;93.24;101721.09;5033043;28;20037;-84
2022/12/05 05:13:35;;;;;;;36.58;19.23;;;;;;;3.82;93.00;101738.84;5021880;28;20042;-84
2022/12/05 05:16:00;;;;;;;38.92;20.30;;;;;;;3.80;93.12;101735.22;5032799;28;20359;-84
2022/12/05 05:18:25;;;;;;;37.40;19.30;;;;;;;3.86;93.90;101743.41;5015160;28;20072;-84
2022/12/05 05:20:51;;;;;;;39.38;20.58;;;;;;;3.87;93.69;101745.19;5033251;28;20033;-84
2022/12/05 05:23:16;;;;;;;37.28;19.60;;;;;;;3.88;93.55;101743.47;5032626;28;20112;-84
2022/12/05 05:25:41;;;;;;;34.38;18.33;;;;;;;3.74;93.20;101725.34;5015278;28;20072;-84
2022/12/05 05:28:07;;;;;;;40.13;19.80;;;;;;;3.87;93.67;101750.44;5032561;28;20033;-84
2022/12/05 05:30:32;;;;;;;40.33;20.25;;;;;;;3.76;93.73;101736.78;5033656;28;20036;-84
2022/12/05 05:32:59;;;;;;;40.05;20.42;;;;;;;3.85;93.74;101756.38;5018788;28;20053;-84
2022/12/05 05:35:24;;;;;;;35.92;20.02;;;;;;;3.73;94.14;101733.13;5036623;28;20111;-84
2022/12/05 05:37:50;;;;;;;39.03;19.50;;;;;;;3.74;94.00;101722.75;5002459;28;20034;-84
2022/12/05 05:40:16;;;;;;;37.72;19.05;;;;;;;3.76;93.82;101730.66;5018713;28;20080;-83
2022/12/05 05:42:46;;;;;;;42.00;21.35;;;;;;;3.70;93.51;101725.13;5036401;28;20032;-84
2022/12/05 05:45:13;;;;;;;35.60;19.38;;;;;;;3.79;94.07;101737.78;5036334;28;20033;-84
2022/12/05 05:47:39;;;;;;;42.20;19.65;;;;;;;3.85;93.85;101749.44;5035857;28;20476;-84
2022/12/05 05:50:06;;;;;;;38.78;20.77;;;;;;;3.84;94.10;101744.13;5036273;28;20395;-84
2022/12/05 05:52:33;;;;;;;36.05;20.48;;;;;;;3.76;94.03;101728.94;5018189;28;20087;-84
2022/12/05 05:55:00;;;;;;;36.42;18.85;;;;;;;3.83;94.32;101739.72;5035930;28;20037;-84
2022/12/05 05:57:25;;;;;;;37.08;18.55;;;;;;;3.87;93.59;101752.16;5036078;28;20148;-84
2022/12/05 05:59:51;;;;;;;38.58;19.52;;;;;;;3.92;93.73;101753.28;5018379;28;20121;-84
2022/12/05 06:02:16;;;;;;;33.22;17.80;;;;;;;3.94;94.03;101755.16;5018313;28;20037;-85
2022/12/05 06:04:41;;;;;;;35.03;18.70;;;;;;;3.66;93.33;101702.25;5018424;28;20039;-84
2022/12/05 06:07:07;;;;;;;34.03;17.92;;;;;;;3.89;93.24;101740.94;5036147;28;20032;-84
2022/12/05 06:09:32;;;;;;;32.90;17.60;;;;;;;4.04;93.24;101759.16;5036066;28;20052;-84
2022/12/05 06:11:58;;;;;;;32.72;18.40;;;;;;;4.06;92.84;101756.59;5018302;28;20367;-84
2022/12/05 06:14:23;;;;;;;33.08;18.23;;;;;;;4.07;93.08;101753.16;5035700;28;20034;-84
2022/12/05 06:16:48;;;;;;;34.35;18.50;;;;;;;4.07;93.21;101759.31;5017992;28;20113;-84
2022/12/05 06:19:14;;;;;;;38.53;18.10;;;;;;;3.98;92.90;101744.06;5017850;28;20080;-84
2022/12/05 06:21:39;;;;;;;34.40;17.27;;;;;;;4.03;93.66;101749.50;5018061;28;20470;-84
2022/12/05 06:24:05;;;;;;;33.58;18.38;;;;;;;3.99;93.31;101751.06;5035590;28;20033;-84
2022/12/05 06:26:30;;;;;;;35.42;18.70;;;;;;;3.99;93.02;101745.84;5035709;28;20033;-84
2022/12/05 06:28:55;;;;;;;36.10;19.05;;;;;;;4.07;93.19;101767.16;5018034;28;20042;-85
2022/12/05 06:31:22;;;;;;;35.85;17.80;;;;;;;3.93;93.62;101747.22;5035415;28;20046;-84
2022/12/05 06:33:48;;;;;;;32.08;17.90;;;;;;;4.07;93.65;101761.00;5034966;28;20497;-84
2022/12/05 06:36:16;;;;;;;32.78;17.65;;;;;;;4.02;93.16;101752.91;5017694;28;20048;-85
2022/12/05 06:38:42;;;;;;;32.55;17.40;;;;;;;4.12;92.89;101770.91;5035347;28;20377;-85
2022/12/05 06:41:10;;;;;;;36.00;17.65;;;;;;;4.10;92.79;101769.91;5017492;28;20478;-84
2022/12/05 06:43:35;;;;;;;30.80;17.13;;;;;;;4.03;93.16;101752.13;5035669;28;20095;-85
2022/12/05 06:46:06;;;;;;;29.92;16.15;;;;;;;4.08;92.91;101761.09;5035035;28;20482;-84
2022/12/05 06:48:31;;;;;;;31.83;17.10;;;;;;;3.94;93.22;101741.16;5035385;28;20057;-85
2022/12/05 06:50:56;;;;;;;32.22;17.23;;;;;;;4.08;93.22;101768.06;5035561;28;20462;-84
2022/12/05 06:53:22;;;;;;;32.67;17.30;;;;;;;4.06;93.63;101760.09;5035451;28;20033;-84
2022/12/05 06:56:01;;;;;;;31.73;16.95;;;;;;;4.17;93.58;101774.66;5017235;28;20080;-85
2022/12/05 06:58:27;;;;;;;28.95;16.42;;;;;;;4.11;93.58;101758.66;5034999;28;20033;-86
2022/12/05 07:03:36;;;;;;;31.35;16.80;;;;;;;4.24;93.36;101781.09;5035003;28;20121;-84
2022/12/05 07:06:04;;;;;;;27.73;15.93;;;;;;;4.21;92.72;101779.22;5034999;28;20049;-85
2022/12/05 07:08:30;;;;;;;28.23;16.42;;;;;;;4.16;92.90;101771.97;5034726;28;20029;-85
2022/12/05 07:10:56;;;;;;;27.55;15.43;;;;;;;4.25;92.84;101786.41;5034814;28;20033;-85
2022/12/05 07:13:21;;;;;;;30.80;16.42;;;;;;;4.18;92.53;101779.06;5016964;28;20040;-86
2022/12/05 07:15:47;;;;;;;31.30;16.92;;;;;;;4.15;92.27;101773.66;5034749;28;20105;-86
2022/12/05 07:18:14;;;;;;;30.42;16.45;;;;;;;4.19;92.94;101782.56;5016869;28;20064;-86
2022/12/05 07:20:40;;;;;;;28.05;15.70;;;;;;;4.29;92.59;101800.56;5001045;28;20346;-87
2022/12/05 07:23:05;;;;;;;27.70;16.08;;;;;;;4.14;92.68;101776.19;4984991;28;20090;-85
2022/12/05 07:25:30;;;;;;;31.55;18.02;;;;;;;4.35;92.51;101806.09;5034692;28;20030;-87
2022/12/05 07:27:56;;;;;;;29.95;17.30;;;;;;;4.37;92.84;101806.16;5016546;28;20038;-87
2022/12/05 07:30:21;;;;;;;30.50;16.48;;;;;;;4.36;92.78;101814.81;5034789;28;20042;-89
2022/12/05 07:32:46;;;;;;;27.13;15.77;;;;;;;4.27;92.43;101805.69;5034399;28;20057;-87
2022/12/05 07:35:12;;;;;;;26.67;15.57;;;;;;;4.31;92.39;101813.69;5016802;28;20475;-88
2022/12/05 07:37:37;;;;;;;26.70;16.25;;;;;;;4.30;92.97;101812.81;5034144;28;20100;-87
2022/12/05 07:40:03;;;;;;;26.95;15.40;;;;;;;4.30;92.67;101810.19;5035595;28;20097;-86
2022/12/05 07:42:29;;;;;;;25.77;14.98;;;;;;;4.36;93.54;101810.50;5034511;28;20065;-87
2022/12/05 07:44:54;;;;;;;28.65;15.45;;;;;;;4.39;92.64;101810.66;5034669;28;20032;-87
2022/12/05 07:47:19;;;;;;;30.83;15.52;;;;;;;4.40;92.97;101809.81;5000446;28;20095;-87
2022/12/05 07:49:45;;;;;;;26.40;15.95;;;;;;;4.31;93.10;101798.91;5034840;28;20477;-86
2022/12/05 07:52:10;;;;;;;30.63;16.58;;;;;;;4.17;93.21;101765.91;5034686;28;20057;-86
2022/12/05 07:54:36;;;;;;;27.48;15.55;;;;;;;4.48;93.18;101821.59;5034010;28;20025;-86
2022/12/05 07:57:01;;;;;;;26.95;15.63;;;;;;;4.47;92.25;101813.66;5000297;28;20448;-86
2022/12/05 07:59:26;;;;;;;26.50;14.77;;;;;;;4.52;92.57;101823.53;5034209;28;20424;-86
2022/12/05 08:01:52;;;;;;;28.73;14.98;;;;;;;4.53;93.03;101827.94;5015212;28;20034;-85
2022/12/05 08:04:17;;;;;;;27.63;16.38;;;;;;;4.53;92.63;101827.94;5033408;28;20037;-84
2022/12/05 08:06:43;;;;;;;30.30;16.35;;;;;;;4.44;93.07;101810.88;5033895;28;20026;-85
2022/12/05 08:09:08;;;;;;;29.23;15.35;;;;;;;4.54;93.00;101828.88;5033362;28;20059;-86
2022/12/05 08:11:36;;;;;;;26.27;14.82;;;;;;;4.43;92.85;101817.84;5016296;28;20033;-86
2022/12/05 08:14:03;;;;;;;26.00;14.40;;;;;;;4.46;92.30;101820.63;5033368;28;20474;-87
2022/12/05 08:16:30;;;;;;;26.58;14.07;;;;;;;4.36;92.49;101804.38;5033731;28;20155;-86
2022/12/05 08:19:05;;;;;;;24.77;15.13;;;;;;;4.49;92.30;101830.34;5015868;28;20096;-86
2022/12/05 08:21:31;;;;;;;28.83;15.50;;;;;;;4.58;92.96;101837.75;5033704;28;20524;-87
2022/12/05 08:23:57;;;;;;;27.58;14.95;;;;;;;4.60;92.46;101843.97;5033310;28;20029;-87
2022/12/05 08:26:30;;;;;;;28.88;16.02;;;;;;;4.48;92.76;101836.41;5033301;28;20037;-86
2022/12/05 08:29:02;;;;;;;28.27;15.23;;;;;;;4.53;92.42;101851.50;5032695;28;20068;-86
2022/12/05 08:31:30;;;;;;;28.15;16.00;;;;;;;4.48;93.44;101837.28;5033025;28;20032;-86
2022/12/05 08:33:58;;;;;;;27.35;15.00;;;;;;;4.63;93.30;101859.84;5033856;28;20099;-87
2022/12/05 08:36:26;;;;;;;27.08;15.55;;;;;;;4.70;93.45;101862.84;5034999;28;20041;-87
2022/12/05 08:38:56;;;;;;;24.65;15.30;;;;;;;4.71;92.85;101866.34;5015812;28;20022;-87
2022/12/05 08:41:22;;;;;;;25.80;15.25;;;;;;;4.73;92.88;101862.09;5032914;28;20062;-87
2022/12/05 08:43:48;;;;;;;25.42;15.23;;;;;;;4.71;93.37;101861.13;5033583;28;20029;-86
2022/12/05 08:46:13;;;;;;;28.42;15.57;;;;;;;4.71;92.94;101861.13;4998898;28;20397;-87
2022/12/05 08:48:38;;;;;;;27.23;15.20;;;;;;;4.72;92.82;101863.81;4999265;28;20041;-87
2022/12/05 08:51:06;;;;;;;28.08;15.07;;;;;;;4.63;93.05;101837.19;5035524;28;20041;-87
2022/12/05 08:53:32;;;;;;;23.88;14.70;;;;;;;4.78;93.16;101864.13;5033000;28;20025;-87
2022/12/05 08:56:02;;;;;;;25.27;14.35;;;;;;;4.81;92.96;101872.97;5032400;28;20108;-87
2022/12/05 08:58:28;;;;;;;26.95;15.63;;;;;;;4.71;92.58;101851.56;5033019;28;20029;-87
2022/12/05 09:00:54;;;;;;;31.48;15.02;;;;;;;4.79;92.55;101859.78;5032672;28;20029;-87
2022/12/05 09:03:19;;;;;;;25.45;15.63;;;;;;;4.74;92.52;101859.56;5015292;28;20087;-87
2022/12/05 09:05:44;;;;;;;24.20;14.88;;;;;;;4.83;92.75;101864.34;5001948;28;20104;-88
2022/12/05 09:08:10;;;;;;;28.73;15.77;;;;;;;4.74;91.95;101861.28;5039725;28;20044;-86
2022/12/05 09:10:37;;;;;;;24.65;14.45;;;;;;;4.79;92.55;101875.50;5037207;28;20474;-87
2022/12/05 09:13:02;;;;;;;28.02;14.80;;;;;;;4.79;92.34;101875.50;5018848;28;20026;-86
2022/12/05 09:15:27;;;;;;;28.65;14.98;;;;;;;4.82;93.02;101875.66;5018948;28;20091;-87
2022/12/05 09:17:53;;;;;;;27.67;15.00;;;;;;;4.84;92.65;101880.97;5018804;28;20045;-87
2022/12/05 09:20:18;;;;;;;25.10;14.50;;;;;;;4.90;92.74;101886.53;5036808;28;20116;-87
2022/12/05 09:22:44;;;;;;;25.63;14.68;;;;;;;4.92;92.46;101892.72;4986390;28;20450;-87
2022/12/05 09:25:09;;;;;;;24.15;14.52;;;;;;;4.83;91.75;101869.59;5019090;28;20057;-87
2022/12/05 09:27:35;;;;;;;25.05;14.63;;;;;;;4.95;92.09;101893.78;5023079;28;20540;-87
2022/12/05 09:30:01;;;;;;;28.20;14.77;;;;;;;4.89;91.56;101883.00;5037423;28;20030;-87
2022/12/05 09:32:26;;;;;;;23.90;14.18;;;;;;;4.84;91.64;101887.13;5036701;28;20036;-87
2022/12/05 09:34:52;;;;;;;28.20;14.52;;;;;;;4.78;92.05;101878.94;5018609;28;20432;-88
2022/12/05 09:37:17;;;;;;;26.45;14.50;;;;;;;4.73;92.44;101876.09;5018782;28;20101;-88
2022/12/05 09:39:43;;;;;;;26.48;14.63;;;;;;;4.76;92.28;101885.84;5002396;28;20036;-89
2022/12/05 09:42:37;;;;;;;24.30;13.20;;;;;;;4.83;92.48;101889.66;5018784;28;20087;-89
2022/12/05 09:45:33;;;;;;;23.25;13.40;;;;;;;4.92;92.10;101905.81;5036592;28;20036;-87
2022/12/05 09:48:10;;;;;;;21.77;12.55;;;;;;;4.89;91.94;101900.44;5018939;28;20117;-90
2022/12/05 09:50:51;;;;;;;20.17;12.43;;;;;;;4.85;91.33;101898.50;5036749;28;20056;-89
2022/12/05 09:53:32;;;;;;;20.80;12.25;;;;;;;4.72;90.77;101896.97;5018541;28;20029;-88
2022/12/05 09:56:28;;;;;;;15.88;10.10;;;;;;;4.75;90.37;101908.50;5035891;28;20079;-90
2022/12/05 09:58:54;;;;;;;17.08;10.23;;;;;;;4.67;89.71;101904.59;5036664;28;20124;-91
2022/12/05 10:01:48;;;;;;;16.10;9.95;;;;;;;4.66;90.07;101904.50;5018290;28;20121;-92
2022/12/05 10:04:14;;;;;;;15.88;10.27;;;;;;;4.64;90.27;101900.91;5035947;28;20033;-90
2022/12/05 10:06:49;;;;;;;16.98;10.23;;;;;;;4.62;90.12;101913.00;5018420;28;20461;-90
2022/12/05 10:09:46;;;;;;;17.65;11.18;;;;;;;4.60;90.50;101909.44;5019278;28;20037;-90
2022/12/05 10:12:42;;;;;;;14.70;9.10;;;;;;;4.55;89.98;101918.75;5037002;28;20501;-90
2022/12/05 10:15:13;;;;;;;13.55;9.20;;;;;;;4.54;90.39;101912.63;5019509;28;20033;-90
2022/12/05 10:17:43;;;;;;;14.60;9.00;;;;;;;4.58;90.50;101904.09;5019608;28;20030;-90
2022/12/05 10:20:15;;;;;;;13.10;8.88;;;;;;;4.47;90.30;101887.84;5018655;28;20033;-89
2022/12/05 10:22:53;;;;;;;11.90;8.30;;;;;;;4.44;89.78;101881.53;5036566;28;20037;-91
2022/12/05 10:25:20;;;;;;;14.18;9.05;;;;;;;4.48;90.17;101880.88;5043922;28;20033;-91
2022/12/05 10:27:57;;;;;;;12.73;8.65;;;;;;;4.46;89.60;101882.53;5036350;28;20037;-91
2022/12/05 10:30:34;;;;;;;13.55;8.40;;;;;;;4.51;90.31;101894.13;5011478;28;20064;-89
2022/12/05 10:33:13;;;;;;;11.43;8.13;;;;;;;4.52;90.36;101891.59;5039906;28;20470;-91
2022/12/05 10:35:40;;;;;;;12.27;8.38;;;;;;;4.41;90.25;101869.22;5018676;28;20041;-90
2022/12/05 10:38:12;;;;;;;15.68;8.60;;;;;;;4.67;90.57;101912.44;5018316;28;20025;-89
2022/12/05 10:40:40;;;;;;;14.40;8.90;;;;;;;4.58;90.22;101882.25;5035961;28;20025;-89
2022/12/05 10:43:09;;;;;;;12.82;8.63;;;;;;;4.65;89.98;101893.13;5036907;28;20025;-86
2022/12/05 10:45:41;;;;;;;14.45;9.07;;;;;;;4.76;90.08;101904.16;5017795;28;20025;-86
2022/12/05 10:48:09;;;;;;;;;;;;;;;4.82;90.54;101909.69;5038453;28;20037;-88
2022/12/05 10:50:37;;;;;;;14.02;9.13;;;;;;;4.71;90.04;101901.31;5036226;28;19909;-86
2022/12/05 10:53:06;;;;;;;14.00;8.57;;;;;;;4.76;91.10;101909.41;5018054;28;20409;-86
2022/12/05 10:55:44;;;;;;;13.05;8.90;;;;;;;4.71;90.58;101903.94;5035823;28;20022;-87
2022/12/05 10:58:15;;;;;;;14.10;9.23;;;;;;;4.79;91.20;101912.16;5017384;28;20473;-87
2022/12/05 11:00:45;;;;;;;12.65;8.77;;;;;;;4.75;91.22;101903.28;5035345;28;20037;-89
2022/12/05 11:03:35;;;;;;;14.30;8.57;;;;;;;4.60;90.56;101870.16;5017352;28;20485;-88
2022/12/05 11:06:31;;;;;;;14.60;8.93;;;;;;;4.84;90.87;101896.66;5020392;28;20045;-85
2022/12/05 11:09:18;;;;;;;14.60;9.25;;;;;;;4.95;90.59;101914.72;5034847;28;20072;-86
2022/12/05 11:12:21;;;;;;;13.95;9.10;;;;;;;4.95;90.14;101901.63;5017703;28;20027;-86
2022/12/05 11:14:53;;;;;;;14.38;8.50;;;;;;;5.06;90.40;101907.44;5007305;28;20402;-88
2022/12/05 11:17:25;;;;;;;13.73;8.75;;;;;;;5.09;89.55;101896.19;5022703;28;20034;-87
2022/12/05 11:19:53;;;;;;;14.20;9.23;;;;;;;4.76;89.57;101831.75;5035168;28;20029;-87
2022/12/05 11:22:18;;;;;;;14.73;9.15;;;;;;;4.61;89.49;101817.88;5034895;28;20033;-88
2022/12/05 11:24:44;;;;;;;13.55;9.18;;;;;;;5.07;89.73;101897.84;5034609;28;20070;-87
2022/12/05 11:27:15;;;;;;;16.08;8.98;;;;;;;5.09;89.50;101906.66;5017207;28;20183;-87
2022/12/05 11:29:43;;;;;;;13.15;8.85;;;;;;;5.13;89.59;101887.66;5034215;28;20044;-86
2022/12/05 11:32:24;;;;;;;12.50;8.20;;;;;;;5.01;88.46;101859.13;5035761;28;20026;-87
2022/12/05 11:34:57;;;;;;;12.63;8.18;;;;;;;5.02;88.21;101861.84;5035580;28;20049;-88
2022/12/05 11:37:24;;;;;;;;;;;;;;;5.32;88.90;101897.34;5034955;28;20576;-87
2022/12/05 11:39:50;;;;;;;10.95;7.53;;;;;;;5.25;88.09;101894.41;5035677;28;19920;-87
2022/12/05 11:42:30;;;;;;;11.65;7.95;;;;;;;5.13;87.80;101871.94;5017317;28;20057;-86